sensor_id;sensor_type;location;lat;lon;timestamp;pressure;altitude;pressure_sealevel;temperature;humidity
59443;BME280;45247;47.466;19.004;2023-04-06T00:02:18;100101.44;;;-1.45;90.66
59443;BME280;45247;47.466;19.004;2023-04-06T00:04:46;100104.91;;;-1.51;92.41
59443;BME280;45247;47.466;19.004;2023-04-06T00:07:14;100104.09;;;-1.57;92.68
59443;BME280;45247;47.466;19.004;2023-04-06T00:09:43;100104.13;;;-1.63;92.46
59443;BME280;45247;47.466;19.004;2023-04-06T00:12:11;100104.16;;;-1.68;90.45
59443;BME280;45247;47.466;19.004;2023-04-06T00:14:39;100106.81;;;-1.74;91.97
59443;BME280;45247;47.466;19.004;2023-04-06T00:17:09;100096.50;;;-1.85;93.02
59443;BME280;45247;47.466;19.004;2023-04-06T00:19:38;100095.69;;;-1.93;92.99
59443;BME280;45247;47.466;19.004;2023-04-06T00:22:06;100092.28;;;-1.96;93.49
59443;BME280;45247;47.466;19.004;2023-04-06T00:24:34;100098.34;;;-2.04;95.84
59443;BME280;45247;47.466;19.004;2023-04-06T00:27:02;100095.81;;;-2.10;100.00
59443;BME280;45247;47.466;19.004;2023-04-06T00:29:30;100092.38;;;-2.18;100.00
59443;BME280;45247;47.466;19.004;2023-04-06T00:31:58;100082.09;;;-2.36;100.00
59443;BME280;45247;47.466;19.004;2023-04-06T00:34:28;100083.84;;;-2.41;100.00
59443;BME280;45247;47.466;19.004;2023-04-06T00:36:56;100078.69;;;-2.44;100.00
59443;BME280;45247;47.466;19.004;2023-04-06T00:39:24;100078.69;;;-2.44;100.00
59443;BME280;45247;47.466;19.004;2023-04-06T00:41:53;100072.69;;;-2.49;100.00
59443;BME280;45247;47.466;19.004;2023-04-06T00:44:21;100077.88;;;-2.57;100.00
59443;BME280;45247;47.466;19.004;2023-04-06T00:46:50;100072.78;;;-2.74;100.00
59443;BME280;45247;47.466;19.004;2023-04-06T00:49:18;100075.41;;;-2.86;100.00
59443;BME280;45247;47.466;19.004;2023-04-06T00:51:47;100080.56;;;-2.92;100.00
59443;BME280;45247;47.466;19.004;2023-04-06T00:54:16;100066.81;;;-2.94;100.00
59443;BME280;45247;47.466;19.004;2023-04-06T00:56:44;100070.25;;;-2.95;100.00
59443;BME280;45247;47.466;19.004;2023-04-06T00:59:12;100072.00;;;-2.99;100.00
59443;BME280;45247;47.466;19.004;2023-04-06T01:01:40;100072.81;;;-2.97;100.00
59443;BME280;45247;47.466;19.004;2023-04-06T01:04:08;100078.88;;;-2.99;100.00
59443;BME280;45247;47.466;19.004;2023-04-06T01:06:37;100076.28;;;-3.06;100.00
59443;BME280;45247;47.466;19.004;2023-04-06T01:09:06;100078.88;;;-3.09;100.00
59443;BME280;45247;47.466;19.004;2023-04-06T01:11:35;100086.63;;;-3.12;100.00
59443;BME280;45247;47.466;19.004;2023-04-06T01:14:03;100084.06;;;-3.15;100.00
59443;BME280;45247;47.466;19.004;2023-04-06T01:16:32;100084.03;;;-3.18;100.00
59443;BME280;45247;47.466;19.004;2023-04-06T01:19:00;100082.34;;;-3.28;100.00
59443;BME280;45247;47.466;19.004;2023-04-06T01:21:28;100089.22;;;-3.32;100.00
59443;BME280;45247;47.466;19.004;2023-04-06T01:23:58;100086.66;;;-3.33;100.00
59443;BME280;45247;47.466;19.004;2023-04-06T01:26:26;100074.59;;;-3.33;100.00
59443;BME280;45247;47.466;19.004;2023-04-06T01:28:56;100078.91;;;-3.27;100.00
59443;BME280;45247;47.466;19.004;2023-04-06T01:31:24;100087.50;;;-3.25;100.00
59443;BME280;45247;47.466;19.004;2023-04-06T01:33:53;100079.75;;;-3.22;100.00
59443;BME280;45247;47.466;19.004;2023-04-06T01:36:21;100075.44;;;-3.11;100.00
59443;BME280;45247;47.466;19.004;2023-04-06T01:38:50;100069.41;;;-3.14;100.00
59443;BME280;45247;47.466;19.004;2023-04-06T01:41:19;100066.81;;;-3.07;100.00
59443;BME280;45247;47.466;19.004;2023-04-06T01:43:48;100074.59;;;-3.08;100.00
59443;BME280;45247;47.466;19.004;2023-04-06T01:46:16;100078.03;;;-3.11;100.00
59443;BME280;45247;47.466;19.004;2023-04-06T01:48:44;100073.69;;;-3.06;100.00
59443;BME280;45247;47.466;19.004;2023-04-06T01:51:12;100073.69;;;-3.09;100.00
59443;BME280;45247;47.466;19.004;2023-04-06T01:53:41;100065.97;;;-3.12;100.00
59443;BME280;45247;47.466;19.004;2023-04-06T01:56:09;100072.00;;;-3.22;100.00
59443;BME280;45247;47.466;19.004;2023-04-06T01:58:38;100070.31;;;-3.29;100.00
59443;BME280;45247;47.466;19.004;2023-04-06T02:01:06;100069.44;;;-3.31;100.00
59443;BME280;45247;47.466;19.004;2023-04-06T02:03:34;100058.25;;;-3.33;100.00
59443;BME280;45247;47.466;19.004;2023-04-06T02:06:03;100059.09;;;-3.27;100.00
59443;BME280;45247;47.466;19.004;2023-04-06T02:08:31;100062.56;;;-3.29;100.00
59443;BME280;45247;47.466;19.004;2023-04-06T02:10:59;100062.53;;;-3.28;100.00
59443;BME280;45247;47.466;19.004;2023-04-06T02:13:27;100066.88;;;-3.30;100.00
59443;BME280;45247;47.466;19.004;2023-04-06T02:15:57;100060.81;;;-3.35;100.00
59443;BME280;45247;47.466;19.004;2023-04-06T02:18:25;100054.78;;;-3.26;100.00
59443;BME280;45247;47.466;19.004;2023-04-06T02:20:54;100053.09;;;-3.33;100.00
59443;BME280;45247;47.466;19.004;2023-04-06T02:23:23;100053.06;;;-3.30;100.00
59443;BME280;45247;47.466;19.004;2023-04-06T02:25:51;100053.09;;;-3.36;100.00
59443;BME280;45247;47.466;19.004;2023-04-06T02:28:19;100047.91;;;-3.39;100.00
59443;BME280;45247;47.466;19.004;2023-04-06T02:30:47;100045.34;;;-3.39;100.00
59443;BME280;45247;47.466;19.004;2023-04-06T02:33:16;100045.34;;;-3.45;100.00
59443;BME280;45247;47.466;19.004;2023-04-06T02:35:45;100041.06;;;-3.46;100.00
59443;BME280;45247;47.466;19.004;2023-04-06T02:38:13;100031.59;;;-3.46;100.00
59443;BME280;45247;47.466;19.004;2023-04-06T02:40:41;100038.47;;;-3.49;100.00
59443;BME280;45247;47.466;19.004;2023-04-06T02:43:09;100036.75;;;-3.49;100.00
59443;BME280;45247;47.466;19.004;2023-04-06T02:45:37;100037.63;;;-3.55;100.00
59443;BME280;45247;47.466;19.004;2023-04-06T02:48:05;100035.88;;;-3.57;100.00
59443;BME280;45247;47.466;19.004;2023-04-06T02:50:35;100036.75;;;-3.57;100.00
59443;BME280;45247;47.466;19.004;2023-04-06T02:53:03;100034.19;;;-3.60;100.00
59443;BME280;45247;47.466;19.004;2023-04-06T02:55:31;100030.72;;;-3.62;100.00
59443;BME280;45247;47.466;19.004;2023-04-06T02:57:59;100035.91;;;-3.66;100.00
59443;BME280;45247;47.466;19.004;2023-04-06T03:00:27;100033.31;;;-3.66;100.00
59443;BME280;45247;47.466;19.004;2023-04-06T03:02:55;100032.44;;;-3.79;100.00
59443;BME280;45247;47.466;19.004;2023-04-06T03:05:23;100035.88;;;-3.83;100.00
59443;BME280;45247;47.466;19.004;2023-04-06T03:07:53;100029.00;;;-3.90;100.00
59443;BME280;45247;47.466;19.004;2023-04-06T03:10:21;100029.88;;;-3.93;100.00
59443;BME280;45247;47.466;19.004;2023-04-06T03:12:49;100022.97;;;-3.98;100.00
59443;BME280;45247;47.466;19.004;2023-04-06T03:15:17;100029.00;;;-4.01;100.00
59443;BME280;45247;47.466;19.004;2023-04-06T03:17:45;100023.81;;;-4.03;100.00
59443;BME280;45247;47.466;19.004;2023-04-06T03:20:14;100026.38;;;-4.07;100.00
59443;BME280;45247;47.466;19.004;2023-04-06T03:22:42;100030.72;;;-4.06;100.00
59443;BME280;45247;47.466;19.004;2023-04-06T03:25:12;100028.13;;;-4.09;100.00
59443;BME280;45247;47.466;19.004;2023-04-06T03:27:40;100027.25;;;-4.13;100.00
59443;BME280;45247;47.466;19.004;2023-04-06T03:30:09;100022.09;;;-4.10;100.00
59443;BME280;45247;47.466;19.004;2023-04-06T03:32:37;100032.41;;;-4.08;100.00
59443;BME280;45247;47.466;19.004;2023-04-06T03:35:05;100034.13;;;-4.09;100.00
59443;BME280;45247;47.466;19.004;2023-04-06T03:37:33;100039.28;;;-4.15;100.00
59443;BME280;45247;47.466;19.004;2023-04-06T03:40:02;100037.56;;;-4.19;100.00
59443;BME280;45247;47.466;19.004;2023-04-06T03:42:32;100040.97;;;-4.23;100.00
59443;BME280;45247;47.466;19.004;2023-04-06T03:45:00;100039.25;;;-4.27;100.00
59443;BME280;45247;47.466;19.004;2023-04-06T03:47:28;100038.41;;;-4.28;100.00
59443;BME280;45247;47.466;19.004;2023-04-06T03:49:56;100038.38;;;-4.26;100.00
59443;BME280;45247;47.466;19.004;2023-04-06T03:52:24;100032.38;;;-4.20;100.00
59443;BME280;45247;47.466;19.004;2023-04-06T03:54:52;100037.56;;;-4.14;100.00
59443;BME280;45247;47.466;19.004;2023-04-06T03:57:20;100034.13;;;-4.12;100.00
59443;BME280;45247;47.466;19.004;2023-04-06T03:59:50;100030.69;;;-4.11;100.00
59443;BME280;45247;47.466;19.004;2023-04-06T04:02:18;100032.41;;;-4.11;100.00
59443;BME280;45247;47.466;19.004;2023-04-06T04:04:47;100031.53;;;-4.13;100.00
59443;BME280;45247;47.466;19.004;2023-04-06T04:07:15;100030.69;;;-4.14;100.00
59443;BME280;45247;47.466;19.004;2023-04-06T04:09:43;100026.38;;;-4.16;100.00
59443;BME280;45247;47.466;19.004;2023-04-06T04:12:11;100029.84;;;-4.14;100.00
59443;BME280;45247;47.466;19.004;2023-04-06T04:14:41;100029.81;;;-4.20;100.00
59443;BME280;45247;47.466;19.004;2023-04-06T04:17:10;100035.81;;;-4.23;100.00
59443;BME280;45247;47.466;19.004;2023-04-06T04:19:38;100025.50;;;-4.20;100.00
59443;BME280;45247;47.466;19.004;2023-04-06T04:22:07;100023.81;;;-4.12;100.00
59443;BME280;45247;47.466;19.004;2023-04-06T04:24:35;100030.69;;;-4.12;100.00
59443;BME280;45247;47.466;19.004;2023-04-06T04:27:03;100029.84;;;-4.07;100.00
59443;BME280;45247;47.466;19.004;2023-04-06T04:29:31;100022.13;;;-4.00;100.00
59443;BME280;45247;47.466;19.004;2023-04-06T04:31:59;100025.53;;;-3.98;100.00
59443;BME280;45247;47.466;19.004;2023-04-06T04:34:29;100024.69;;;-3.94;100.00
59443;BME280;45247;47.466;19.004;2023-04-06T04:36:57;100025.56;;;-3.86;100.00
59443;BME280;45247;47.466;19.004;2023-04-06T04:39:25;100021.28;;;-3.76;100.00
59443;BME280;45247;47.466;19.004;2023-04-06T04:41:54;100013.53;;;-3.63;100.00
59443;BME280;45247;47.466;19.004;2023-04-06T04:44:22;100013.53;;;-3.50;100.00
59443;BME280;45247;47.466;19.004;2023-04-06T04:46:50;100010.94;;;-3.34;100.00
59443;BME280;45247;47.466;19.004;2023-04-06T04:49:18;100004.84;;;-3.10;100.00
59443;BME280;45247;47.466;19.004;2023-04-06T04:51:47;100004.84;;;-3.10;100.00
59443;BME280;45247;47.466;19.004;2023-04-06T04:54:18;99997.94;;;-2.94;100.00
59443;BME280;45247;47.466;19.004;2023-04-06T04:56:46;99998.63;;;-2.58;100.00
59443;BME280;45247;47.466;19.004;2023-04-06T04:59:14;99993.16;;;-2.05;100.00
59443;BME280;45247;47.466;19.004;2023-04-06T05:01:43;100003.84;;;-1.41;100.00
59443;BME280;45247;47.466;19.004;2023-04-06T05:04:21;100008.47;;;-0.86;100.00
59443;BME280;45247;47.466;19.004;2023-04-06T05:07:02;100001.94;;;-0.45;100.00
59443;BME280;45247;47.466;19.004;2023-04-06T05:09:30;100005.13;;;-0.25;91.21
59443;BME280;45247;47.466;19.004;2023-04-06T05:11:59;100006.41;;;0.05;91.73
59443;BME280;45247;47.466;19.004;2023-04-06T05:14:27;99997.28;;;0.34;85.62
59443;BME280;45247;47.466;19.004;2023-04-06T05:16:55;99997.56;;;0.68;82.89
59443;BME280;45247;47.466;19.004;2023-04-06T05:19:23;99985.44;;;1.15;78.93
59443;BME280;45247;47.466;19.004;2023-04-06T05:21:54;99981.94;;;1.58;75.55
59443;BME280;45247;47.466;19.004;2023-04-06T05:24:23;99981.94;;;1.98;71.80
59443;BME280;45247;47.466;19.004;2023-04-06T05:26:52;99974.63;;;2.48;67.22
59443;BME280;45247;47.466;19.004;2023-04-06T05:29:20;99973.38;;;2.63;64.66
59443;BME280;45247;47.466;19.004;2023-04-06T05:31:48;99960.22;;;2.67;65.10
59443;BME280;45247;47.466;19.004;2023-04-06T05:34:16;99972.25;;;3.06;63.10
59443;BME280;45247;47.466;19.004;2023-04-06T05:36:45;99960.63;;;3.47;61.00
59443;BME280;45247;47.466;19.004;2023-04-06T05:39:14;99968.72;;;3.95;59.98
59443;BME280;45247;47.466;19.004;2023-04-06T05:41:42;99958.91;;;4.30;58.20
59443;BME280;45247;47.466;19.004;2023-04-06T05:44:10;99957.28;;;4.26;57.43
59443;BME280;45247;47.466;19.004;2023-04-06T05:46:39;99953.06;;;4.22;57.67
59443;BME280;45247;47.466;19.004;2023-04-06T05:49:07;99963.63;;;3.63;58.10
59443;BME280;45247;47.466;19.004;2023-04-06T05:51:35;99954.44;;;3.79;58.88
59443;BME280;45247;47.466;19.004;2023-04-06T05:54:04;99953.16;;;3.35;59.16
59443;BME280;45247;47.466;19.004;2023-04-06T05:56:33;99945.59;;;3.83;59.13
59443;BME280;45247;47.466;19.004;2023-04-06T05:59:01;99956.75;;;3.88;58.18
59443;BME280;45247;47.466;19.004;2023-04-06T06:01:29;99944.16;;;4.27;57.78
59443;BME280;45247;47.466;19.004;2023-04-06T06:03:57;99938.03;;;4.80;56.03
59443;BME280;45247;47.466;19.004;2023-04-06T06:06:27;99939.41;;;4.90;54.56
59443;BME280;45247;47.466;19.004;2023-04-06T06:08:56;99938.78;;;5.07;54.64
59443;BME280;45247;47.466;19.004;2023-04-06T06:11:25;99934.53;;;5.28;53.94
59443;BME280;45247;47.466;19.004;2023-04-06T06:13:55;99935.63;;;5.68;53.30
59443;BME280;45247;47.466;19.004;2023-04-06T06:16:23;99933.00;;;5.90;52.41
59443;BME280;45247;47.466;19.004;2023-04-06T06:18:51;99931.75;;;5.33;53.04
59443;BME280;45247;47.466;19.004;2023-04-06T06:21:19;99925.19;;;4.97;52.47
59443;BME280;45247;47.466;19.004;2023-04-06T06:23:47;99936.25;;;5.52;52.96
59443;BME280;45247;47.466;19.004;2023-04-06T06:26:16;99934.31;;;5.56;50.84
59443;BME280;45247;47.466;19.004;2023-04-06T06:28:45;99929.34;;;5.72;50.60
59443;BME280;45247;47.466;19.004;2023-04-06T06:31:14;99927.78;;;5.68;50.64
59443;BME280;45247;47.466;19.004;2023-04-06T06:33:42;99930.47;;;5.88;51.13
59443;BME280;45247;47.466;19.004;2023-04-06T06:36:11;99909.09;;;5.99;47.12
59443;BME280;45247;47.466;19.004;2023-04-06T06:38:39;99912.19;;;5.19;45.92
59443;BME280;45247;47.466;19.004;2023-04-06T06:41:07;99916.00;;;5.11;47.28
59443;BME280;45247;47.466;19.004;2023-04-06T06:43:35;99913.16;;;4.68;45.66
59443;BME280;45247;47.466;19.004;2023-04-06T06:46:04;99914.47;;;4.30;47.87
59443;BME280;45247;47.466;19.004;2023-04-06T06:48:34;99904.72;;;4.35;47.75
59443;BME280;45247;47.466;19.004;2023-04-06T06:51:02;99913.97;;;4.45;47.49
59443;BME280;45247;47.466;19.004;2023-04-06T06:53:30;99909.84;;;3.85;48.96
59443;BME280;45247;47.466;19.004;2023-04-06T06:55:59;99909.78;;;4.40;48.01
59443;BME280;45247;47.466;19.004;2023-04-06T06:58:27;99912.34;;;3.88;49.17
59443;BME280;45247;47.466;19.004;2023-04-06T07:00:56;99918.78;;;3.78;48.14
59443;BME280;45247;47.466;19.004;2023-04-06T07:03:25;99908.53;;;3.72;49.94
59443;BME280;45247;47.466;19.004;2023-04-06T07:05:55;99912.94;;;4.24;48.15
59443;BME280;45247;47.466;19.004;2023-04-06T07:08:24;99917.47;;;3.65;48.67
59443;BME280;45247;47.466;19.004;2023-04-06T07:10:52;99913.44;;;4.09;47.74
59443;BME280;45247;47.466;19.004;2023-04-06T07:13:23;99908.41;;;4.03;48.42
59443;BME280;45247;47.466;19.004;2023-04-06T07:15:51;99913.13;;;4.18;48.12
59443;BME280;45247;47.466;19.004;2023-04-06T07:18:20;99910.25;;;4.26;48.11
59443;BME280;45247;47.466;19.004;2023-04-06T07:20:48;99905.81;;;4.55;47.92
59443;BME280;45247;47.466;19.004;2023-04-06T07:23:18;99912.75;;;4.79;46.73
59443;BME280;45247;47.466;19.004;2023-04-06T07:25:46;99917.41;;;4.71;46.69
59443;BME280;45247;47.466;19.004;2023-04-06T07:28:14;99911.63;;;4.63;46.83
59443;BME280;45247;47.466;19.004;2023-04-06T07:30:42;99924.81;;;4.83;46.90
59443;BME280;45247;47.466;19.004;2023-04-06T07:33:10;99913.53;;;4.58;46.00
59443;BME280;45247;47.466;19.004;2023-04-06T07:35:39;99914.97;;;4.66;47.02
59443;BME280;45247;47.466;19.004;2023-04-06T07:38:07;99901.84;;;4.68;47.36
59443;BME280;45247;47.466;19.004;2023-04-06T07:40:36;99904.53;;;4.41;46.25
59443;BME280;45247;47.466;19.004;2023-04-06T07:43:04;99909.31;;;4.53;46.78
59443;BME280;45247;47.466;19.004;2023-04-06T07:45:33;99903.50;;;4.45;47.10
59443;BME280;45247;47.466;19.004;2023-04-06T07:48:01;99911.09;;;4.26;46.69
59443;BME280;45247;47.466;19.004;2023-04-06T07:50:29;99902.44;;;3.99;47.18
59443;BME280;45247;47.466;19.004;2023-04-06T07:52:57;99907.03;;;4.18;47.54
59443;BME280;45247;47.466;19.004;2023-04-06T07:55:26;99906.72;;;4.27;46.75
59443;BME280;45247;47.466;19.004;2023-04-06T07:57:56;99899.22;;;4.18;47.58
59443;BME280;45247;47.466;19.004;2023-04-06T08:00:25;99901.97;;;4.13;46.74
59443;BME280;45247;47.466;19.004;2023-04-06T08:02:53;99900.13;;;4.17;46.74
59443;BME280;45247;47.466;19.004;2023-04-06T08:05:21;99903.53;;;4.44;46.91
59443;BME280;45247;47.466;19.004;2023-04-06T08:07:49;99896.03;;;4.35;47.58
59443;BME280;45247;47.466;19.004;2023-04-06T08:10:18;99903.41;;;4.22;47.44
59443;BME280;45247;47.466;19.004;2023-04-06T08:12:46;99906.63;;;4.30;48.26
59443;BME280;45247;47.466;19.004;2023-04-06T08:15:16;99899.22;;;4.18;48.40
59443;BME280;45247;47.466;19.004;2023-04-06T08:17:44;99903.06;;;4.06;48.31
59443;BME280;45247;47.466;19.004;2023-04-06T08:20:13;99899.06;;;4.22;48.29
59443;BME280;45247;47.466;19.004;2023-04-06T08:22:41;99895.03;;;4.39;49.28
59443;BME280;45247;47.466;19.004;2023-04-06T08:25:09;99900.41;;;4.84;47.14
59443;BME280;45247;47.466;19.004;2023-04-06T08:27:37;99893.41;;;4.60;48.41
59443;BME280;45247;47.466;19.004;2023-04-06T08:30:06;99888.75;;;4.93;48.48
59443;BME280;45247;47.466;19.004;2023-04-06T08:32:35;99885.84;;;5.24;47.25
59443;BME280;45247;47.466;19.004;2023-04-06T08:35:04;99884.75;;;5.30;46.96
59443;BME280;45247;47.466;19.004;2023-04-06T08:37:32;99884.63;;;5.33;46.48
59443;BME280;45247;47.466;19.004;2023-04-06T08:40:01;99883.78;;;5.32;47.68
59443;BME280;45247;47.466;19.004;2023-04-06T08:42:33;99884.53;;;5.58;46.08
59443;BME280;45247;47.466;19.004;2023-04-06T08:45:01;99871.84;;;5.47;45.70
59443;BME280;45247;47.466;19.004;2023-04-06T08:47:29;99875.38;;;5.24;46.96
59443;BME280;45247;47.466;19.004;2023-04-06T08:50:02;99873.47;;;5.06;46.34
59443;BME280;45247;47.466;19.004;2023-04-06T08:52:32;99884.81;;;5.28;46.20
59443;BME280;45247;47.466;19.004;2023-04-06T08:55:00;99872.53;;;5.07;46.45
59443;BME280;45247;47.466;19.004;2023-04-06T08:57:30;99867.47;;;4.78;47.11
59443;BME280;45247;47.466;19.004;2023-04-06T09:00:00;99868.59;;;4.95;46.86
59443;BME280;45247;47.466;19.004;2023-04-06T09:02:28;99862.59;;;5.38;46.43
59443;BME280;45247;47.466;19.004;2023-04-06T09:04:59;99862.38;;;5.44;45.49
59443;BME280;45247;47.466;19.004;2023-04-06T09:07:28;99863.47;;;5.61;46.15
59443;BME280;45247;47.466;19.004;2023-04-06T09:09:57;99867.47;;;5.91;44.13
59443;BME280;45247;47.466;19.004;2023-04-06T09:12:26;99857.13;;;5.88;44.38
59443;BME280;45247;47.466;19.004;2023-04-06T09:14:55;99853.72;;;6.08;44.28
59443;BME280;45247;47.466;19.004;2023-04-06T09:17:24;99839.03;;;6.24;44.03
59443;BME280;45247;47.466;19.004;2023-04-06T09:19:53;99839.56;;;6.33;43.16
59443;BME280;45247;47.466;19.004;2023-04-06T09:22:24;99837.63;;;6.17;43.58
59443;BME280;45247;47.466;19.004;2023-04-06T09:24:54;99832.06;;;6.64;43.42
59443;BME280;45247;47.466;19.004;2023-04-06T09:27:30;99835.53;;;6.65;42.92
59443;BME280;45247;47.466;19.004;2023-04-06T09:30:03;99834.66;;;7.03;42.47
59443;BME280;45247;47.466;19.004;2023-04-06T09:32:43;99829.13;;;7.10;41.86
59443;BME280;45247;47.466;19.004;2023-04-06T09:35:12;99833.53;;;6.90;40.64
59443;BME280;45247;47.466;19.004;2023-04-06T09:37:42;99838.00;;;7.26;41.83
59443;BME280;45247;47.466;19.004;2023-04-06T09:40:11;99836.94;;;7.11;40.20
59443;BME280;45247;47.466;19.004;2023-04-06T09:42:41;99830.81;;;6.92;41.67
59443;BME280;45247;47.466;19.004;2023-04-06T09:45:10;99837.16;;;6.67;41.59
59443;BME280;45247;47.466;19.004;2023-04-06T09:47:39;99829.72;;;6.38;42.19
59443;BME280;45247;47.466;19.004;2023-04-06T09:50:10;99815.34;;;6.67;40.72
59443;BME280;45247;47.466;19.004;2023-04-06T09:52:42;99821.16;;;6.92;42.26
59443;BME280;45247;47.466;19.004;2023-04-06T09:55:12;99818.16;;;6.62;41.32
59443;BME280;45247;47.466;19.004;2023-04-06T09:57:50;99820.66;;;6.65;41.47
59443;BME280;45247;47.466;19.004;2023-04-06T10:00:22;99813.50;;;6.69;40.31
59443;BME280;45247;47.466;19.004;2023-04-06T10:02:54;99818.47;;;6.75;40.40
59443;BME280;45247;47.466;19.004;2023-04-06T10:05:29;99821.88;;;7.15;41.03
59443;BME280;45247;47.466;19.004;2023-04-06T10:08:05;99823.59;;;6.78;41.23
59443;BME280;45247;47.466;19.004;2023-04-06T10:10:34;99822.66;;;7.17;43.34
59443;BME280;45247;47.466;19.004;2023-04-06T10:13:03;99811.81;;;6.87;40.87
59443;BME280;45247;47.466;19.004;2023-04-06T10:15:32;99810.84;;;7.08;40.44
59443;BME280;45247;47.466;19.004;2023-04-06T10:18:02;99807.19;;;7.11;41.44
59443;BME280;45247;47.466;19.004;2023-04-06T10:20:35;99794.22;;;7.26;40.85
59443;BME280;45247;47.466;19.004;2023-04-06T10:23:10;99800.94;;;7.32;40.76
59443;BME280;45247;47.466;19.004;2023-04-06T10:25:52;99786.56;;;7.58;41.03
59443;BME280;45247;47.466;19.004;2023-04-06T10:28:21;99800.16;;;7.66;39.73
59443;BME280;45247;47.466;19.004;2023-04-06T10:30:49;99791.03;;;7.56;38.66
59443;BME280;45247;47.466;19.004;2023-04-06T10:33:24;99796.06;;;7.78;39.21
59443;BME280;45247;47.466;19.004;2023-04-06T10:35:52;99795.47;;;7.73;38.39
59443;BME280;45247;47.466;19.004;2023-04-06T10:38:33;99794.25;;;7.80;38.43
59443;BME280;45247;47.466;19.004;2023-04-06T10:41:07;99781.38;;;7.91;38.37
59443;BME280;45247;47.466;19.004;2023-04-06T10:43:36;99778.94;;;7.88;38.18
59443;BME280;45247;47.466;19.004;2023-04-06T10:46:07;99777.31;;;7.86;39.10
59443;BME280;45247;47.466;19.004;2023-04-06T10:48:37;99770.13;;;7.72;38.85
59443;BME280;45247;47.466;19.004;2023-04-06T10:51:10;99775.03;;;8.13;39.20
59443;BME280;45247;47.466;19.004;2023-04-06T10:53:41;99769.31;;;8.04;39.44
59443;BME280;45247;47.466;19.004;2023-04-06T10:56:11;99777.69;;;7.95;39.11
59443;BME280;45247;47.466;19.004;2023-04-06T10:58:44;99762.72;;;7.80;37.76
59443;BME280;45247;47.466;19.004;2023-04-06T11:01:14;99760.38;;;7.74;38.65
59443;BME280;45247;47.466;19.004;2023-04-06T11:03:44;99758.44;;;7.77;39.11
59443;BME280;45247;47.466;19.004;2023-04-06T11:06:18;99763.31;;;7.68;39.17
59443;BME280;45247;47.466;19.004;2023-04-06T11:08:48;99770.72;;;7.60;38.94
59443;BME280;45247;47.466;19.004;2023-04-06T11:11:18;99762.28;;;7.70;38.72
59443;BME280;45247;47.466;19.004;2023-04-06T11:13:49;99763.47;;;7.82;38.20
59443;BME280;45247;47.466;19.004;2023-04-06T11:16:19;99766.03;;;7.84;38.04
59443;BME280;45247;47.466;19.004;2023-04-06T11:18:49;99765.25;;;7.99;37.77
59443;BME280;45247;47.466;19.004;2023-04-06T11:21:18;99766.06;;;8.17;36.74
59443;BME280;45247;47.466;19.004;2023-04-06T11:23:48;99758.78;;;8.22;36.73
59443;BME280;45247;47.466;19.004;2023-04-06T11:26:16;99759.38;;;8.11;36.12
59443;BME280;45247;47.466;19.004;2023-04-06T11:28:44;99754.19;;;8.10;37.06
59443;BME280;45247;47.466;19.004;2023-04-06T11:31:13;99743.94;;;8.38;37.29
59443;BME280;45247;47.466;19.004;2023-04-06T11:33:41;99763.06;;;8.24;36.82
59443;BME280;45247;47.466;19.004;2023-04-06T11:36:09;99746.22;;;8.11;36.89
59443;BME280;45247;47.466;19.004;2023-04-06T11:38:40;99749.38;;;8.18;37.12
59443;BME280;45247;47.466;19.004;2023-04-06T11:41:10;99739.06;;;8.48;37.30
59443;BME280;45247;47.466;19.004;2023-04-06T11:43:38;99753.38;;;8.42;37.89
59443;BME280;45247;47.466;19.004;2023-04-06T11:46:17;99753.75;;;8.35;36.10
59443;BME280;45247;47.466;19.004;2023-04-06T11:48:46;99743.88;;;8.40;35.87
59443;BME280;45247;47.466;19.004;2023-04-06T11:51:22;99756.16;;;8.22;37.47
59443;BME280;45247;47.466;19.004;2023-04-06T11:53:50;99730.94;;;8.35;38.13
59443;BME280;45247;47.466;19.004;2023-04-06T11:56:30;99732.19;;;8.45;38.34
59443;BME280;45247;47.466;19.004;2023-04-06T11:58:58;99730.00;;;8.53;39.04
59443;BME280;45247;47.466;19.004;2023-04-06T12:01:27;99729.75;;;8.58;38.22
59443;BME280;45247;47.466;19.004;2023-04-06T12:03:56;99736.44;;;8.31;38.42
59443;BME280;45247;47.466;19.004;2023-04-06T12:06:25;99734.72;;;8.14;39.35
59443;BME280;45247;47.466;19.004;2023-04-06T12:08:53;99740.91;;;7.95;40.25
59443;BME280;45247;47.466;19.004;2023-04-06T12:11:22;99722.28;;;7.65;39.74
59443;BME280;45247;47.466;19.004;2023-04-06T12:13:51;99734.34;;;7.69;39.30
59443;BME280;45247;47.466;19.004;2023-04-06T12:16:19;99723.91;;;7.68;38.83
59443;BME280;45247;47.466;19.004;2023-04-06T12:18:47;99730.41;;;7.61;39.55
59443;BME280;45247;47.466;19.004;2023-04-06T12:21:16;99723.53;;;7.58;39.56
59443;BME280;45247;47.466;19.004;2023-04-06T12:23:44;99725.75;;;7.66;38.83
59443;BME280;45247;47.466;19.004;2023-04-06T12:26:12;99725.47;;;7.55;38.94
59443;BME280;45247;47.466;19.004;2023-04-06T12:28:40;99733.97;;;7.60;39.40
59443;BME280;45247;47.466;19.004;2023-04-06T12:31:15;99736.09;;;7.51;39.43
59443;BME280;45247;47.466;19.004;2023-04-06T12:33:46;99720.81;;;7.42;39.70
59443;BME280;45247;47.466;19.004;2023-04-06T12:36:14;99726.41;;;7.71;38.75
59443;BME280;45247;47.466;19.004;2023-04-06T12:38:46;99721.16;;;8.04;39.89
59443;BME280;45247;47.466;19.004;2023-04-06T12:41:15;99719.84;;;8.13;38.18
59443;BME280;45247;47.466;19.004;2023-04-06T12:43:44;99715.38;;;8.15;40.14
59443;BME280;45247;47.466;19.004;2023-04-06T12:46:12;99724.03;;;7.99;40.49
59443;BME280;45247;47.466;19.004;2023-04-06T12:48:42;99732.25;;;7.93;40.66
59443;BME280;45247;47.466;19.004;2023-04-06T12:51:10;99732.25;;;7.76;41.81
59443;BME280;45247;47.466;19.004;2023-04-06T12:53:38;99728.59;;;7.44;42.74
59443;BME280;45247;47.466;19.004;2023-04-06T12:56:11;99724.22;;;7.62;41.97
59443;BME280;45247;47.466;19.004;2023-04-06T12:58:40;99721.81;;;7.40;41.76